createdAt,value
2019-04-20T00:01:38.762Z,61.20
2019-04-20T00:04:09.908Z,61.20
2019-04-20T00:06:43.178Z,61.00
2019-04-20T00:09:11.869Z,61.00
2019-04-20T00:11:47.101Z,61.30
2019-04-20T00:14:10.382Z,61.70
2019-04-20T00:16:31.685Z,61.70
2019-04-20T00:19:01.859Z,61.70
2019-04-20T00:21:27.214Z,61.70
2019-04-20T00:23:54.770Z,62.00
2019-04-20T00:26:34.058Z,62.20
2019-04-20T00:29:06.918Z,62.10
2019-04-20T00:31:38.023Z,62.30
2019-04-20T00:33:56.209Z,62.20
2019-04-20T00:36:16.173Z,62.50
2019-04-20T00:38:50.938Z,62.60
2019-04-20T00:41:14.291Z,63.10
2019-04-20T00:43:42.131Z,63.10
2019-04-20T00:46:19.581Z,63.10
2019-04-20T00:48:48.497Z,63.10
2019-04-20T00:51:24.970Z,63.30
2019-04-20T00:53:39.624Z,63.30
2019-04-20T00:56:03.769Z,63.10
2019-04-20T00:58:42.118Z,62.80
2019-04-20T01:01:20.669Z,62.60
2019-04-20T01:03:43.207Z,62.50
2019-04-20T01:06:19.010Z,62.50
2019-04-20T01:08:25.697Z,63.20
2019-04-20T01:10:55.708Z,63.00
2019-04-20T01:13:24.825Z,62.50
2019-04-20T01:15:55.395Z,63.40
2019-04-20T01:18:18.098Z,63.40
2019-04-20T01:20:45.266Z,63.90
2019-04-20T01:23:15.806Z,63.70
2019-04-20T01:25:43.793Z,63.50
2019-04-20T01:28:29.928Z,63.20
2019-04-20T01:30:45.792Z,63.40
2019-04-20T01:33:22.860Z,63.20
2019-04-20T01:35:48.913Z,63.40
2019-04-20T01:38:20.902Z,63.50
2019-04-20T01:40:32.028Z,63.40
2019-04-20T01:42:59.493Z,63.60
2019-04-20T01:45:31.427Z,64.20
2019-04-20T01:47:57.846Z,63.70
2019-04-20T01:50:27.669Z,63.60
2019-04-20T01:53:03.503Z,64.70
2019-04-20T01:55:43.993Z,64.10
2019-04-20T01:58:12.151Z,64.00
2019-04-20T02:00:30.732Z,64.10
2019-04-20T02:02:58.679Z,63.40
2019-04-20T02:05:29.064Z,65.00
2019-04-20T02:07:53.907Z,64.70
2019-04-20T02:10:22.890Z,64.60
2019-04-20T02:12:53.052Z,64.00
2019-04-20T02:15:24.256Z,64.00
2019-04-20T02:17:59.709Z,64.00
2019-04-20T02:20:54.490Z,64.30
2019-04-20T02:23:16.498Z,64.30
2019-04-20T02:25:31.160Z,64.50
2019-04-20T02:28:18.962Z,64.80
2019-04-20T02:33:40.043Z,64.70
2019-04-20T02:36:04.808Z,64.50
2019-04-20T02:38:38.856Z,64.40
2019-04-20T02:41:02.394Z,64.40
2019-04-20T02:43:34.777Z,64.80
2019-04-20T02:45:49.130Z,65.20
2019-04-20T02:48:13.429Z,64.80
2019-04-20T02:50:59.264Z,65.00
2019-04-20T02:55:53.507Z,65.20
2019-04-20T02:58:20.411Z,64.70
2019-04-20T03:00:35.442Z,64.80
2019-04-20T03:02:55.322Z,64.60
2019-04-20T03:05:20.430Z,64.80
2019-04-20T03:07:57.399Z,64.60
2019-04-20T03:10:34.337Z,64.80
2019-04-20T03:12:57.064Z,65.50
2019-04-20T03:15:33.764Z,65.40
2019-04-20T03:17:58.794Z,65.10
2019-04-20T03:20:29.966Z,65.60
2019-04-20T03:25:24.233Z,65.10
2019-04-20T03:27:46.130Z,64.90
2019-04-20T03:31:08.823Z,64.60
2019-04-20T03:35:22.495Z,65.60
2019-04-20T03:37:42.697Z,65.50
2019-04-20T03:40:09.902Z,66.20
2019-04-20T03:42:24.454Z,65.50
2019-04-20T03:44:58.693Z,65.20
2019-04-20T03:47:31.462Z,65.20
2019-04-20T03:50:16.754Z,65.20
2019-04-20T03:52:32.844Z,65.20
2019-04-20T03:54:54.353Z,65.40
2019-04-20T03:57:38.333Z,65.60
2019-04-20T04:00:04.866Z,65.40
2019-04-20T04:04:59.077Z,65.50
2019-04-20T04:07:19.546Z,65.40
2019-04-20T04:09:56.408Z,65.60
2019-04-20T04:13:03.077Z,65.70
2019-04-20T04:15:29.885Z,65.70
2019-04-20T04:17:58.468Z,65.80
2019-04-20T04:20:32.981Z,65.90
2019-04-20T04:23:10.349Z,66.40
2019-04-20T04:25:33.686Z,66.70
2019-04-20T04:28:09.322Z,66.80
2019-04-20T04:30:33.056Z,66.50
2019-04-20T04:33:32.217Z,66.60
2019-04-20T04:35:29.808Z,67.30
2019-04-20T04:38:02.698Z,67.30
2019-04-20T04:40:42.180Z,67.50
2019-04-20T04:43:05.700Z,67.10
2019-04-20T04:45:17.241Z,66.70
2019-04-20T04:47:42.892Z,66.50
2019-04-20T04:50:16.435Z,66.80
2019-04-20T04:52:49.237Z,67.10
2019-04-20T04:55:20.038Z,67.50
2019-04-20T04:57:36.928Z,67.50
2019-04-20T05:00:11.126Z,67.40
2019-04-20T05:02:41.252Z,67.90
2019-04-20T05:05:25.448Z,67.80
2019-04-20T05:07:47.824Z,68.10
2019-04-20T05:10:01.952Z,67.80
2019-04-20T05:12:33.122Z,68.20
2019-04-20T05:15:05.216Z,68.10
2019-04-20T05:17:45.317Z,67.40
2019-04-20T05:20:16.062Z,67.00
2019-04-20T05:22:42.848Z,67.50
2019-04-20T05:25:10.840Z,68.10
2019-04-20T05:27:40.093Z,67.70
2019-04-20T05:29:49.252Z,68.00
2019-04-20T05:32:24.719Z,68.60
2019-04-20T05:35:08.461Z,69.80
2019-04-20T05:37:59.598Z,68.10
2019-04-20T05:40:09.390Z,68.30
2019-04-20T05:42:30.218Z,68.20
2019-04-20T05:44:57.255Z,68.40
2019-04-20T05:47:26.603Z,68.80
2019-04-20T05:49:53.868Z,68.90
2019-04-20T05:54:57.314Z,67.80
2019-04-20T05:57:25.167Z,68.50
2019-04-20T05:59:56.211Z,67.90
2019-04-20T06:02:26.264Z,67.70
2019-04-20T06:05:00.203Z,67.00
2019-04-20T06:07:20.928Z,67.60
2019-04-20T06:09:46.255Z,67.20
2019-04-20T06:12:31.499Z,67.00
2019-04-20T06:14:39.424Z,67.10
2019-04-20T06:17:08.861Z,67.00
2019-04-20T06:19:57.555Z,66.80
2019-04-20T06:22:14.930Z,66.30
2019-04-20T06:24:44.838Z,66.30
2019-04-20T06:27:04.784Z,66.90
2019-04-20T06:29:31.819Z,65.50
2019-04-20T06:32:07.020Z,64.90
2019-04-20T06:34:37.729Z,64.80
2019-04-20T06:37:02.074Z,64.70
2019-04-20T06:44:32.260Z,62.90
2019-04-20T06:51:59.984Z,61.40
2019-04-20T06:54:15.916Z,61.00
2019-04-20T06:56:54.425Z,60.60
2019-04-20T06:59:27.675Z,60.40
2019-04-20T07:01:56.918Z,60.70
2019-04-20T07:04:43.110Z,60.60
2019-04-20T07:09:27.218Z,60.10
2019-04-20T07:11:47.756Z,60.10
2019-04-20T07:14:00.962Z,60.30
2019-04-20T07:16:47.870Z,60.60
2019-04-20T07:19:17.284Z,60.00
2019-04-20T07:21:57.363Z,59.70
2019-04-20T07:24:11.782Z,59.40
2019-04-20T07:26:39.982Z,58.90
2019-04-20T07:29:13.552Z,58.90
2019-04-20T07:31:29.645Z,58.70
2019-04-20T07:34:03.721Z,58.50
2019-04-20T07:36:32.328Z,58.70
2019-04-20T07:39:03.723Z,58.70
2019-04-20T07:41:33.023Z,59.60
2019-04-20T07:44:02.969Z,59.00
2019-04-20T07:46:41.098Z,58.30
2019-04-20T07:48:56.457Z,58.10
2019-04-20T07:51:13.713Z,57.40
2019-04-20T07:53:45.030Z,56.80
2019-04-20T07:56:25.902Z,55.60
2019-04-20T07:58:36.699Z,55.00
2019-04-20T08:01:22.579Z,55.20
2019-04-20T08:04:01.380Z,55.70
2019-04-20T08:06:02.428Z,55.50
2019-04-20T08:08:38.539Z,52.70
2019-04-20T08:11:07.352Z,51.10
2019-04-20T08:13:46.700Z,51.50
2019-04-20T08:16:08.758Z,50.80
2019-04-20T08:18:40.041Z,52.50
2019-04-20T08:21:06.408Z,51.80
2019-04-20T08:23:34.861Z,49.50
2019-04-20T08:25:53.241Z,48.40
2019-04-20T08:28:16.439Z,50.50
2019-04-20T08:30:57.102Z,51.20
2019-04-20T08:33:29.915Z,50.50
2019-04-20T08:36:01.229Z,50.50
2019-04-20T08:40:53.634Z,50.30
2019-04-20T08:43:37.687Z,49.30
2019-04-20T08:45:49.235Z,48.20
2019-04-20T08:48:27.469Z,48.10
2019-04-20T08:50:50.688Z,47.50
2019-04-20T08:53:20.756Z,47.20
2019-04-20T08:55:42.540Z,46.50
2019-04-20T08:57:54.344Z,45.00
2019-04-20T09:00:29.322Z,42.00
2019-04-20T09:02:57.875Z,41.50
2019-04-20T09:05:32.619Z,41.50
2019-04-20T09:07:57.184Z,40.70
2019-04-20T09:10:38.014Z,40.30
2019-04-20T09:12:57.391Z,40.20
2019-04-20T09:15:16.845Z,40.70
2019-04-20T09:17:49.458Z,41.50
2019-04-20T09:20:21.517Z,38.90
2019-04-20T09:22:50.657Z,38.80
2019-04-20T09:27:45.708Z,37.00
2019-04-20T09:30:24.299Z,38.70
2019-04-20T09:32:56.710Z,39.20
2019-04-20T09:35:27.724Z,36.70
2019-04-20T09:37:53.115Z,36.00
2019-04-20T09:40:29.331Z,35.30
2019-04-20T09:42:34.991Z,35.40
2019-04-20T09:45:04.916Z,37.70
2019-04-20T09:47:36.903Z,37.10
2019-04-20T09:50:13.445Z,36.50
2019-04-20T09:52:48.014Z,38.70
2019-04-20T09:55:10.703Z,38.70
2019-04-20T09:57:43.858Z,36.10
2019-04-20T10:00:13.336Z,35.60
2019-04-20T10:02:27.812Z,33.30
2019-04-20T10:04:51.617Z,35.50
2019-04-20T10:07:22.243Z,34.40
2019-04-20T10:09:48.372Z,35.30
2019-04-20T10:12:15.742Z,35.80
2019-04-20T10:14:42.796Z,36.00
2019-04-20T10:17:09.712Z,36.00
2019-04-20T10:19:39.129Z,34.00
2019-04-20T10:22:05.094Z,33.70
2019-04-20T10:24:32.799Z,33.80
2019-04-20T10:27:00.807Z,35.30
2019-04-20T10:29:27.929Z,35.20
2019-04-20T10:31:58.535Z,34.50
2019-04-20T10:34:24.224Z,34.80
2019-04-20T10:36:51.440Z,34.60
2019-04-20T10:39:18.514Z,34.30
2019-04-20T10:41:51.275Z,34.70
2019-04-20T10:44:14.666Z,32.50
2019-04-20T10:46:42.818Z,34.30
2019-04-20T10:49:11.090Z,33.00
2019-04-20T10:51:38.125Z,29.60
2019-04-20T10:54:04.924Z,30.30
2019-04-20T10:56:31.777Z,31.10
2019-04-20T10:58:58.509Z,31.60
2019-04-20T11:01:25.453Z,29.40
2019-04-20T11:03:52.373Z,30.60
2019-04-20T11:06:20.557Z,28.80
2019-04-20T11:08:48.649Z,26.80
2019-04-20T11:11:22.849Z,26.10
2019-04-20T11:13:44.092Z,27.40
2019-04-20T11:16:10.871Z,26.50
2019-04-20T11:18:37.729Z,25.60
2019-04-20T11:21:04.573Z,26.00
2019-04-20T11:23:32.097Z,26.40
2019-04-20T11:26:00.151Z,27.50
2019-04-20T11:28:28.193Z,27.40
2019-04-20T11:30:56.229Z,25.50
2019-04-20T11:33:24.449Z,24.80
2019-04-20T11:35:51.589Z,24.00
2019-04-20T11:38:19.629Z,22.40
2019-04-20T11:40:48.171Z,21.30
2019-04-20T11:43:15.625Z,20.60
2019-04-20T11:45:42.735Z,20.20
2019-04-20T11:48:09.758Z,21.70
2019-04-20T11:50:37.707Z,21.00
2019-04-20T11:53:05.586Z,21.80
2019-04-20T11:55:34.012Z,24.80
2019-04-20T11:58:01.709Z,25.20
2019-04-20T12:00:52.080Z,25.90
2019-04-20T12:03:21.349Z,25.90
2019-04-20T12:05:44.550Z,22.20
2019-04-20T12:08:09.106Z,25.50
2019-04-20T12:10:37.175Z,24.30
2019-04-20T12:13:03.985Z,23.70
2019-04-20T12:15:33.667Z,22.20
2019-04-20T12:17:59.871Z,22.80
2019-04-20T12:20:26.952Z,22.00
2019-04-20T12:22:54.637Z,20.80
2019-04-20T12:25:21.538Z,21.50
2019-04-20T12:27:52.574Z,21.20
2019-04-20T12:30:17.583Z,23.40
2019-04-20T12:32:50.477Z,21.40
2019-04-20T12:35:14.116Z,22.20
2019-04-20T12:37:41.250Z,22.00
2019-04-20T12:40:12.133Z,22.20
2019-04-20T12:42:39.252Z,22.80
2019-04-20T12:45:09.610Z,21.90
2019-04-20T12:47:37.481Z,22.10
2019-04-20T12:50:07.669Z,21.30
2019-04-20T12:52:34.693Z,20.00
2019-04-20T12:55:04.356Z,18.70
2019-04-20T12:57:30.239Z,21.10
2019-04-20T12:59:57.288Z,21.20
2019-04-20T13:02:25.151Z,22.40
2019-04-20T13:04:53.297Z,22.00
2019-04-20T13:07:21.040Z,22.10
2019-04-20T13:09:50.852Z,22.00
2019-04-20T13:12:19.475Z,22.00
2019-04-20T13:15:06.540Z,21.70
2019-04-20T13:17:34.452Z,22.80
2019-04-20T13:20:01.738Z,23.00
2019-04-20T13:22:28.742Z,21.70
2019-04-20T13:24:56.935Z,23.10
2019-04-20T13:27:25.056Z,22.60
2019-04-20T13:29:52.977Z,22.10
2019-04-20T13:32:20.449Z,21.20
2019-04-20T13:34:47.316Z,22.00
2019-04-20T13:37:14.202Z,21.80
2019-04-20T13:39:40.938Z,21.30
2019-04-20T13:42:16.063Z,20.00
2019-04-20T13:44:38.734Z,19.90
2019-04-20T13:47:07.258Z,19.80
2019-04-20T13:49:34.175Z,19.30
2019-04-20T13:52:00.957Z,21.70
2019-04-20T13:54:28.583Z,19.80
2019-04-20T13:56:56.618Z,20.10
2019-04-20T13:59:24.568Z,21.50
2019-04-20T14:01:52.822Z,21.70
2019-04-20T14:04:20.970Z,21.10
2019-04-20T14:06:49.492Z,20.60
2019-04-20T14:09:17.184Z,20.80
2019-04-20T14:11:45.289Z,21.60
2019-04-20T14:14:13.085Z,19.00
2019-04-20T14:16:41.217Z,19.50
2019-04-20T14:19:09.303Z,18.20
2019-04-20T14:21:36.475Z,18.10
2019-04-20T14:24:04.350Z,20.50
2019-04-20T14:26:32.649Z,20.50
2019-04-20T14:29:00.879Z,18.40
2019-04-20T14:31:27.960Z,19.00
2019-04-20T14:33:57.123Z,20.10
2019-04-20T14:36:24.382Z,20.50
2019-04-20T14:38:51.976Z,20.50
2019-04-20T14:41:20.584Z,18.90
2019-04-20T14:43:48.886Z,18.30
2019-04-20T14:46:16.826Z,20.30
2019-04-20T14:48:44.878Z,19.40
2019-04-20T14:51:11.892Z,20.70
2019-04-20T14:53:38.713Z,23.10
2019-04-20T14:56:05.447Z,21.60
2019-04-20T14:58:33.722Z,22.40
2019-04-20T15:01:00.873Z,21.60
2019-04-20T15:03:28.308Z,22.50
2019-04-20T15:06:00.000Z,21.40
2019-04-20T15:08:27.018Z,24.80
2019-04-20T15:10:54.573Z,21.90
2019-04-20T15:13:22.556Z,22.80
2019-04-20T15:15:50.629Z,22.30
2019-04-20T15:18:17.735Z,22.70
2019-04-20T15:20:45.697Z,24.10
2019-04-20T15:23:12.470Z,24.50
2019-04-20T15:25:40.237Z,25.00
2019-04-20T15:28:08.246Z,24.90
2019-04-20T15:30:36.111Z,24.10
2019-04-20T15:33:03.221Z,23.70
2019-04-20T15:35:30.230Z,25.20
2019-04-20T15:37:57.319Z,25.30
2019-04-20T15:40:27.016Z,26.50
2019-04-20T15:43:01.087Z,26.70
2019-04-20T15:45:23.495Z,26.90
2019-04-20T15:47:50.339Z,26.30
2019-04-20T15:50:18.086Z,27.20
2019-04-20T15:52:50.504Z,28.10
2019-04-20T15:55:22.646Z,27.60
2019-04-20T15:57:42.774Z,27.90
2019-04-20T16:00:10.923Z,27.70
2019-04-20T16:02:39.034Z,27.20
2019-04-20T16:05:06.465Z,28.70
2019-04-20T16:07:39.179Z,28.70
2019-04-20T16:10:07.451Z,28.70
2019-04-20T16:12:35.091Z,28.40
2019-04-20T16:15:03.938Z,28.30
2019-04-20T16:17:36.862Z,27.40
2019-04-20T16:20:06.411Z,27.50
2019-04-20T16:22:28.920Z,27.60
2019-04-20T16:24:59.177Z,26.80
2019-04-20T16:27:27.553Z,27.00
2019-04-20T16:29:55.783Z,27.60
2019-04-20T16:32:42.722Z,28.10
2019-04-20T16:35:10.884Z,28.70
2019-04-20T16:37:38.371Z,29.70
2019-04-20T16:40:07.715Z,30.40
2019-04-20T16:42:38.493Z,30.60
2019-04-20T16:45:07.254Z,30.20
2019-04-20T16:47:34.371Z,31.10
2019-04-20T16:50:01.295Z,30.90
2019-04-20T16:52:28.834Z,31.00
2019-04-20T16:54:55.709Z,31.30
2019-04-20T16:57:23.679Z,32.00
2019-04-20T16:59:53.009Z,32.40
2019-04-20T17:02:19.887Z,32.70
2019-04-20T17:04:50.317Z,33.40
2019-04-20T17:07:16.687Z,33.50
2019-04-20T17:09:43.932Z,33.70
2019-04-20T17:12:11.975Z,34.50
2019-04-20T17:14:39.919Z,35.20
2019-04-20T17:17:07.423Z,35.20
2019-04-20T17:19:35.522Z,35.50
2019-04-20T17:22:03.617Z,34.80
2019-04-20T17:24:31.355Z,34.60
2019-04-20T17:26:59.088Z,36.00
2019-04-20T17:29:26.281Z,37.00
2019-04-20T17:31:53.554Z,37.10
2019-04-20T17:34:36.333Z,36.80
2019-04-20T17:36:50.491Z,37.40
2019-04-20T17:39:27.810Z,37.00
2019-04-20T17:42:03.441Z,37.90
2019-04-20T17:44:31.497Z,38.30
2019-04-20T17:46:56.877Z,39.50
2019-04-20T17:49:28.109Z,40.00
2019-04-20T17:52:05.089Z,40.50
2019-04-20T17:54:10.560Z,40.40
2019-04-20T17:56:38.391Z,40.30
2019-04-20T17:59:06.154Z,40.90
2019-04-20T18:01:49.977Z,40.40
2019-04-20T18:04:37.003Z,40.00
2019-04-20T18:06:43.689Z,41.40
2019-04-20T18:09:13.286Z,41.50
2019-04-20T18:11:36.248Z,42.40
2019-04-20T18:14:04.273Z,42.20
2019-04-20T18:16:46.858Z,41.10
2019-04-20T18:19:03.256Z,41.70
2019-04-20T18:21:24.415Z,42.40
2019-04-20T18:23:51.889Z,42.60
2019-04-20T18:26:37.855Z,43.10
2019-04-20T18:29:21.363Z,42.80
2019-04-20T18:31:15.847Z,43.00
2019-04-20T18:33:42.602Z,43.50
2019-04-20T18:36:13.363Z,44.50
2019-04-20T18:38:49.084Z,44.80
2019-04-20T18:41:08.895Z,45.20
2019-04-20T18:43:42.711Z,44.70
2019-04-20T18:46:23.778Z,44.30
2019-04-20T18:48:57.104Z,44.10
2019-04-20T18:51:02.043Z,44.40
2019-04-20T18:53:35.964Z,44.20
2019-04-20T18:56:00.565Z,44.80
2019-04-20T18:58:27.016Z,45.20
2019-04-20T19:01:14.998Z,45.40
2019-04-20T19:03:44.003Z,45.10
2019-04-20T19:06:12.090Z,45.80
2019-04-20T19:08:44.659Z,46.50
2019-04-20T19:11:11.453Z,47.00
2019-04-20T19:13:38.741Z,46.80
2019-04-20T19:16:16.680Z,46.70
2019-04-20T19:18:50.735Z,47.80
2019-04-20T19:21:03.419Z,47.90
2019-04-20T19:23:33.799Z,47.50
2019-04-20T19:26:04.452Z,47.90
2019-04-20T19:28:35.212Z,47.60
2019-04-20T19:31:12.579Z,47.70
2019-04-20T19:33:37.613Z,48.00
2019-04-20T19:36:09.223Z,48.50
2019-04-20T19:38:29.494Z,48.20
2019-04-20T19:40:59.428Z,48.90
2019-04-20T19:43:26.648Z,48.80
2019-04-20T19:46:30.991Z,49.30
2019-04-20T19:48:27.893Z,49.20
2019-04-20T19:51:24.899Z,49.60
2019-04-20T19:53:38.122Z,49.60
2019-04-20T19:55:56.322Z,48.80
2019-04-20T19:58:26.405Z,49.20
2019-04-20T20:00:53.600Z,49.20
2019-04-20T20:03:19.963Z,49.80
2019-04-20T20:05:49.890Z,50.00
2019-04-20T20:08:20.996Z,51.10
2019-04-20T20:10:45.722Z,50.70
2019-04-20T20:13:13.182Z,50.70
2019-04-20T20:15:41.792Z,50.90
2019-04-20T20:18:27.872Z,51.50
2019-04-20T20:20:55.360Z,50.90
2019-04-20T20:23:05.833Z,51.30
2019-04-20T20:25:37.346Z,51.50
2019-04-20T20:28:14.520Z,52.10
2019-04-20T20:30:35.349Z,52.00
2019-04-20T20:33:16.074Z,52.20
2019-04-20T20:35:30.780Z,51.90
2019-04-20T20:37:59.464Z,51.60
2019-04-20T20:40:29.844Z,53.10
2019-04-20T20:43:04.803Z,52.50
2019-04-20T20:45:32.785Z,53.00
2019-04-20T20:48:12.067Z,53.40
2019-04-20T20:50:36.381Z,53.70
2019-04-20T20:53:00.983Z,53.70
2019-04-20T20:55:25.818Z,53.50
2019-04-20T20:57:55.727Z,53.70
2019-04-20T21:00:34.439Z,54.10
2019-04-20T21:02:50.331Z,53.90
2019-04-20T21:05:11.588Z,53.90
2019-04-20T21:07:38.678Z,53.90
2019-04-20T21:10:08.323Z,54.00
2019-04-20T21:12:37.333Z,54.30
2019-04-20T21:15:12.267Z,54.90
2019-04-20T21:17:47.646Z,54.70
2019-04-20T21:20:20.419Z,54.50
2019-04-20T21:22:57.513Z,54.40
2019-04-20T21:25:07.273Z,55.20
2019-04-20T21:27:34.989Z,55.10
2019-04-20T21:30:03.581Z,55.30
2019-04-20T21:32:33.019Z,55.10
2019-04-20T21:35:03.503Z,55.20
2019-04-20T21:37:28.942Z,55.00
2019-04-20T21:39:59.685Z,55.30
2019-04-20T21:42:26.762Z,55.50
2019-04-20T21:45:05.860Z,56.10
2019-04-20T21:47:28.003Z,56.20
2019-04-20T21:50:03.129Z,56.00
2019-04-20T21:52:27.225Z,56.40
2019-04-20T21:54:47.906Z,56.30
2019-04-20T21:57:16.434Z,56.30
2019-04-20T21:59:48.496Z,56.20
2019-04-20T22:02:19.456Z,55.90
2019-04-20T22:04:40.699Z,56.30
2019-04-20T22:07:08.048Z,56.70
2019-04-20T22:09:42.272Z,57.00
2019-04-20T22:12:05.772Z,56.80
2019-04-20T22:14:33.986Z,56.70
2019-04-20T22:17:03.659Z,56.40
2019-04-20T22:19:41.042Z,56.00
2019-04-20T22:22:05.486Z,56.10
2019-04-20T22:24:42.212Z,55.90
2019-04-20T22:27:07.787Z,56.00
2019-04-20T22:29:24.007Z,55.90
2019-04-20T22:31:53.481Z,55.90
2019-04-20T22:34:23.825Z,55.90
2019-04-20T22:36:50.071Z,56.50
2019-04-20T22:39:16.446Z,56.70
2019-04-20T22:41:45.790Z,56.60
2019-04-20T22:44:15.166Z,56.40
2019-04-20T22:46:42.253Z,57.10
2019-04-20T22:49:28.190Z,57.00
2019-04-20T22:51:50.516Z,56.40
2019-04-20T22:54:21.925Z,56.70
2019-04-20T22:56:47.035Z,57.50
2019-04-20T22:59:12.584Z,57.10
2019-04-20T23:01:40.436Z,56.90
2019-04-20T23:04:01.509Z,57.50
2019-04-20T23:06:33.377Z,58.10
2019-04-20T23:09:01.073Z,58.20
2019-04-20T23:11:29.076Z,58.80
2019-04-20T23:13:54.024Z,58.50
2019-04-20T23:16:21.025Z,57.70
2019-04-20T23:18:47.886Z,58.20
2019-04-20T23:21:17.388Z,58.50
2019-04-20T23:23:43.703Z,58.80
2019-04-20T23:26:11.423Z,59.00
2019-04-20T23:28:47.763Z,58.90
2019-04-20T23:31:15.197Z,58.60
2019-04-20T23:33:36.395Z,58.80
2019-04-20T23:36:04.693Z,59.20
2019-04-20T23:38:32.724Z,59.20
2019-04-20T23:40:59.672Z,58.90
2019-04-20T23:43:29.893Z,59.10
2019-04-20T23:45:54.980Z,59.30
2019-04-20T23:48:23.685Z,59.70
2019-04-20T23:51:05.821Z,58.80
2019-04-20T23:53:35.129Z,59.10
2019-04-20T23:55:47.885Z,59.20
2019-04-20T23:58:16.438Z,59.30
